sensor_id;sensor_type;location;lat;lon;timestamp;P1;durP1;ratioP1;P2;durP2;ratioP2
8279;SDS011;8335;42.646;23.380;2022-12-08T00:00:28;46.43;;;24.53;;
8279;SDS011;8335;42.646;23.380;2022-12-08T00:02:55;46.53;;;24.87;;
8279;SDS011;8335;42.646;23.380;2022-12-08T00:05:23;45.93;;;25.33;;
8279;SDS011;8335;42.646;23.380;2022-12-08T00:08:07;48.77;;;25.33;;
8279;SDS011;8335;42.646;23.380;2022-12-08T00:10:53;54.37;;;27.53;;
8279;SDS011;8335;42.646;23.380;2022-12-08T00:13:19;61.50;;;31.23;;
8279;SDS011;8335;42.646;23.380;2022-12-08T00:15:46;71.63;;;35.43;;
8279;SDS011;8335;42.646;23.380;2022-12-08T00:18:13;73.10;;;37.30;;
8279;SDS011;8335;42.646;23.380;2022-12-08T00:20:41;77.40;;;39.00;;
8279;SDS011;8335;42.646;23.380;2022-12-08T00:23:07;86.07;;;40.40;;
8279;SDS011;8335;42.646;23.380;2022-12-08T00:25:34;75.53;;;40.47;;
8279;SDS011;8335;42.646;23.380;2022-12-08T00:28:01;76.13;;;40.20;;
8279;SDS011;8335;42.646;23.380;2022-12-08T00:30:28;80.10;;;41.30;;
8279;SDS011;8335;42.646;23.380;2022-12-08T00:32:55;71.27;;;38.57;;
8279;SDS011;8335;42.646;23.380;2022-12-08T00:35:23;75.67;;;39.47;;
8279;SDS011;8335;42.646;23.380;2022-12-08T00:37:51;79.17;;;38.87;;
8279;SDS011;8335;42.646;23.380;2022-12-08T00:40:18;79.13;;;38.17;;
8279;SDS011;8335;42.646;23.380;2022-12-08T00:42:44;73.90;;;38.70;;
8279;SDS011;8335;42.646;23.380;2022-12-08T00:45:11;75.13;;;38.53;;
8279;SDS011;8335;42.646;23.380;2022-12-08T00:47:38;76.17;;;39.13;;
8279;SDS011;8335;42.646;23.380;2022-12-08T00:50:05;69.67;;;38.00;;
8279;SDS011;8335;42.646;23.380;2022-12-08T00:52:33;75.70;;;40.77;;
8279;SDS011;8335;42.646;23.380;2022-12-08T00:55:01;73.43;;;39.27;;
8279;SDS011;8335;42.646;23.380;2022-12-08T00:57:29;80.13;;;39.33;;
8279;SDS011;8335;42.646;23.380;2022-12-08T00:59:56;73.67;;;38.60;;
8279;SDS011;8335;42.646;23.380;2022-12-08T01:02:23;69.43;;;33.87;;
8279;SDS011;8335;42.646;23.380;2022-12-08T01:04:49;67.53;;;34.33;;
8279;SDS011;8335;42.646;23.380;2022-12-08T01:07:16;67.07;;;34.00;;
8279;SDS011;8335;42.646;23.380;2022-12-08T01:09:43;59.17;;;33.57;;
8279;SDS011;8335;42.646;23.380;2022-12-08T01:12:11;70.53;;;34.37;;
8279;SDS011;8335;42.646;23.380;2022-12-08T01:14:38;62.03;;;33.40;;
8279;SDS011;8335;42.646;23.380;2022-12-08T01:17:04;67.93;;;34.43;;
8279;SDS011;8335;42.646;23.380;2022-12-08T01:19:31;59.13;;;32.13;;
8279;SDS011;8335;42.646;23.380;2022-12-08T01:21:58;62.17;;;31.80;;
8279;SDS011;8335;42.646;23.380;2022-12-08T01:24:25;59.20;;;33.40;;
8279;SDS011;8335;42.646;23.380;2022-12-08T01:26:51;67.00;;;34.50;;
8279;SDS011;8335;42.646;23.380;2022-12-08T01:29:19;60.77;;;32.57;;
8279;SDS011;8335;42.646;23.380;2022-12-08T01:31:46;60.87;;;32.87;;
8279;SDS011;8335;42.646;23.380;2022-12-08T01:34:13;66.00;;;33.80;;
8279;SDS011;8335;42.646;23.380;2022-12-08T01:36:40;65.67;;;32.13;;
8279;SDS011;8335;42.646;23.380;2022-12-08T01:39:10;63.23;;;34.07;;
8279;SDS011;8335;42.646;23.380;2022-12-08T01:41:40;64.03;;;31.67;;
8279;SDS011;8335;42.646;23.380;2022-12-08T01:47:29;67.93;;;33.27;;
8279;SDS011;8335;42.646;23.380;2022-12-08T01:50:03;63.70;;;33.10;;
8279;SDS011;8335;42.646;23.380;2022-12-08T01:52:35;64.37;;;31.70;;
8279;SDS011;8335;42.646;23.380;2022-12-08T01:55:05;59.50;;;31.60;;
8279;SDS011;8335;42.646;23.380;2022-12-08T01:57:38;60.33;;;32.07;;
8279;SDS011;8335;42.646;23.380;2022-12-08T02:00:08;66.07;;;33.20;;
8279;SDS011;8335;42.646;23.380;2022-12-08T02:02:41;58.23;;;30.47;;
8279;SDS011;8335;42.646;23.380;2022-12-08T02:05:15;60.13;;;30.53;;
8279;SDS011;8335;42.646;23.380;2022-12-08T02:07:44;61.37;;;32.13;;
8279;SDS011;8335;42.646;23.380;2022-12-08T02:10:13;65.43;;;32.80;;
8279;SDS011;8335;42.646;23.380;2022-12-08T02:12:43;60.33;;;31.50;;
8279;SDS011;8335;42.646;23.380;2022-12-08T02:15:10;62.43;;;30.43;;
8279;SDS011;8335;42.646;23.380;2022-12-08T02:17:44;48.90;;;25.47;;
8279;SDS011;8335;42.646;23.380;2022-12-08T02:20:28;37.27;;;21.70;;
8279;SDS011;8335;42.646;23.380;2022-12-08T02:23:05;37.43;;;20.90;;
8279;SDS011;8335;42.646;23.380;2022-12-08T02:25:44;34.17;;;20.53;;
8279;SDS011;8335;42.646;23.380;2022-12-08T02:28:31;46.20;;;23.90;;
8279;SDS011;8335;42.646;23.380;2022-12-08T02:31:16;30.27;;;17.83;;
8279;SDS011;8335;42.646;23.380;2022-12-08T02:33:59;31.03;;;18.30;;
8279;SDS011;8335;42.646;23.380;2022-12-08T02:36:36;33.57;;;18.83;;
8279;SDS011;8335;42.646;23.380;2022-12-08T02:39:15;31.03;;;17.23;;
8279;SDS011;8335;42.646;23.380;2022-12-08T02:41:51;32.00;;;17.07;;
8279;SDS011;8335;42.646;23.380;2022-12-08T02:44:24;26.23;;;16.60;;
8279;SDS011;8335;42.646;23.380;2022-12-08T02:46:56;30.23;;;17.37;;
8279;SDS011;8335;42.646;23.380;2022-12-08T02:49:30;29.73;;;16.77;;
8279;SDS011;8335;42.646;23.380;2022-12-08T02:52:05;30.30;;;16.30;;
8279;SDS011;8335;42.646;23.380;2022-12-08T02:54:33;28.53;;;17.83;;
8279;SDS011;8335;42.646;23.380;2022-12-08T02:57:11;31.27;;;15.90;;
8279;SDS011;8335;42.646;23.380;2022-12-08T02:59:55;30.40;;;17.53;;
8279;SDS011;8335;42.646;23.380;2022-12-08T03:05:27;40.57;;;20.87;;
8279;SDS011;8335;42.646;23.380;2022-12-08T03:08:05;49.47;;;22.30;;
8279;SDS011;8335;42.646;23.380;2022-12-08T03:10:39;42.77;;;23.33;;
8279;SDS011;8335;42.646;23.380;2022-12-08T03:13:10;40.83;;;22.40;;
8279;SDS011;8335;42.646;23.380;2022-12-08T03:15:40;40.03;;;23.47;;
8279;SDS011;8335;42.646;23.380;2022-12-08T03:18:11;45.83;;;22.97;;
8279;SDS011;8335;42.646;23.380;2022-12-08T03:20:42;46.63;;;23.77;;
8279;SDS011;8335;42.646;23.380;2022-12-08T03:23:11;45.37;;;23.30;;
8279;SDS011;8335;42.646;23.380;2022-12-08T03:25:43;39.87;;;21.97;;
8279;SDS011;8335;42.646;23.380;2022-12-08T03:28:14;39.93;;;21.73;;
8279;SDS011;8335;42.646;23.380;2022-12-08T03:30:42;43.00;;;22.80;;
8279;SDS011;8335;42.646;23.380;2022-12-08T03:33:13;43.17;;;22.83;;
8279;SDS011;8335;42.646;23.380;2022-12-08T03:35:45;35.70;;;20.30;;
8279;SDS011;8335;42.646;23.380;2022-12-08T03:38:13;39.40;;;20.80;;
8279;SDS011;8335;42.646;23.380;2022-12-08T03:40:41;44.00;;;23.60;;
8279;SDS011;8335;42.646;23.380;2022-12-08T03:43:29;44.13;;;21.43;;
8279;SDS011;8335;42.646;23.380;2022-12-08T03:45:56;36.17;;;19.07;;
8279;SDS011;8335;42.646;23.380;2022-12-08T03:48:22;33.77;;;18.60;;
8279;SDS011;8335;42.646;23.380;2022-12-08T03:50:50;31.47;;;17.73;;
8279;SDS011;8335;42.646;23.380;2022-12-08T03:53:17;28.23;;;15.13;;
8279;SDS011;8335;42.646;23.380;2022-12-08T03:55:44;27.90;;;15.90;;
8279;SDS011;8335;42.646;23.380;2022-12-08T03:58:10;26.63;;;14.97;;
8279;SDS011;8335;42.646;23.380;2022-12-08T04:00:37;26.97;;;15.33;;
8279;SDS011;8335;42.646;23.380;2022-12-08T04:03:04;26.03;;;15.20;;
8279;SDS011;8335;42.646;23.380;2022-12-08T04:05:31;24.27;;;14.70;;
8279;SDS011;8335;42.646;23.380;2022-12-08T04:07:59;23.43;;;13.63;;
8279;SDS011;8335;42.646;23.380;2022-12-08T04:10:26;24.93;;;14.70;;
8279;SDS011;8335;42.646;23.380;2022-12-08T04:12:52;24.67;;;13.97;;
8279;SDS011;8335;42.646;23.380;2022-12-08T04:15:19;23.93;;;13.80;;
8279;SDS011;8335;42.646;23.380;2022-12-08T04:17:46;23.47;;;14.13;;
8279;SDS011;8335;42.646;23.380;2022-12-08T04:20:13;22.30;;;13.10;;
8279;SDS011;8335;42.646;23.380;2022-12-08T04:22:40;22.67;;;13.03;;
8279;SDS011;8335;42.646;23.380;2022-12-08T04:25:08;16.63;;;11.53;;
8279;SDS011;8335;42.646;23.380;2022-12-08T04:27:35;19.70;;;12.20;;
8279;SDS011;8335;42.646;23.380;2022-12-08T04:30:02;19.30;;;12.60;;
8279;SDS011;8335;42.646;23.380;2022-12-08T04:32:29;22.07;;;13.03;;
8279;SDS011;8335;42.646;23.380;2022-12-08T04:34:56;19.83;;;12.30;;
8279;SDS011;8335;42.646;23.380;2022-12-08T04:37:22;22.07;;;12.80;;
8279;SDS011;8335;42.646;23.380;2022-12-08T04:39:49;19.80;;;11.17;;
8279;SDS011;8335;42.646;23.380;2022-12-08T04:42:17;19.43;;;12.23;;
8279;SDS011;8335;42.646;23.380;2022-12-08T04:44:44;18.10;;;11.03;;
8279;SDS011;8335;42.646;23.380;2022-12-08T04:47:11;19.37;;;12.00;;
8279;SDS011;8335;42.646;23.380;2022-12-08T04:49:37;18.17;;;11.87;;
8279;SDS011;8335;42.646;23.380;2022-12-08T04:52:04;21.00;;;12.00;;
8279;SDS011;8335;42.646;23.380;2022-12-08T04:54:31;20.17;;;11.70;;
8279;SDS011;8335;42.646;23.380;2022-12-08T04:56:58;18.17;;;11.33;;
8279;SDS011;8335;42.646;23.380;2022-12-08T04:59:26;19.40;;;11.60;;
8279;SDS011;8335;42.646;23.380;2022-12-08T05:01:52;16.97;;;11.00;;
8279;SDS011;8335;42.646;23.380;2022-12-08T05:04:19;17.50;;;11.10;;
8279;SDS011;8335;42.646;23.380;2022-12-08T05:06:46;19.57;;;12.80;;
8279;SDS011;8335;42.646;23.380;2022-12-08T05:09:12;19.70;;;12.17;;
8279;SDS011;8335;42.646;23.380;2022-12-08T05:11:39;22.33;;;13.13;;
8279;SDS011;8335;42.646;23.380;2022-12-08T05:14:07;19.80;;;12.33;;
8279;SDS011;8335;42.646;23.380;2022-12-08T05:16:35;20.23;;;11.93;;
8279;SDS011;8335;42.646;23.380;2022-12-08T05:19:03;21.03;;;12.40;;
8279;SDS011;8335;42.646;23.380;2022-12-08T05:21:30;22.57;;;13.13;;
8279;SDS011;8335;42.646;23.380;2022-12-08T05:23:57;25.00;;;13.00;;
8279;SDS011;8335;42.646;23.380;2022-12-08T05:26:24;24.10;;;13.73;;
8279;SDS011;8335;42.646;23.380;2022-12-08T05:28:51;26.60;;;14.30;;
8279;SDS011;8335;42.646;23.380;2022-12-08T05:31:18;21.47;;;13.67;;
8279;SDS011;8335;42.646;23.380;2022-12-08T05:33:47;26.03;;;14.80;;
8279;SDS011;8335;42.646;23.380;2022-12-08T05:36:15;28.77;;;14.20;;
8279;SDS011;8335;42.646;23.380;2022-12-08T05:38:43;23.47;;;13.77;;
8279;SDS011;8335;42.646;23.380;2022-12-08T05:41:12;31.00;;;16.13;;
8279;SDS011;8335;42.646;23.380;2022-12-08T05:43:40;24.80;;;13.33;;
8279;SDS011;8335;42.646;23.380;2022-12-08T05:46:07;29.73;;;15.00;;
8279;SDS011;8335;42.646;23.380;2022-12-08T05:48:34;26.60;;;14.17;;
8279;SDS011;8335;42.646;23.380;2022-12-08T05:51:03;28.93;;;16.47;;
8279;SDS011;8335;42.646;23.380;2022-12-08T05:53:30;31.27;;;17.27;;
8279;SDS011;8335;42.646;23.380;2022-12-08T05:55:57;29.40;;;17.50;;
8279;SDS011;8335;42.646;23.380;2022-12-08T05:58:24;30.30;;;16.83;;
8279;SDS011;8335;42.646;23.380;2022-12-08T06:00:50;35.57;;;18.03;;
8279;SDS011;8335;42.646;23.380;2022-12-08T06:03:17;33.43;;;18.63;;
8279;SDS011;8335;42.646;23.380;2022-12-08T06:05:45;36.63;;;20.47;;
8279;SDS011;8335;42.646;23.380;2022-12-08T06:08:14;35.87;;;19.97;;
8279;SDS011;8335;42.646;23.380;2022-12-08T06:10:43;36.33;;;20.73;;
8279;SDS011;8335;42.646;23.380;2022-12-08T06:13:10;38.83;;;20.10;;
8279;SDS011;8335;42.646;23.380;2022-12-08T06:15:37;34.37;;;19.00;;
8279;SDS011;8335;42.646;23.380;2022-12-08T06:18:05;40.57;;;19.80;;
8279;SDS011;8335;42.646;23.380;2022-12-08T06:20:32;36.43;;;19.60;;
8279;SDS011;8335;42.646;23.380;2022-12-08T06:22:59;34.20;;;18.47;;
8279;SDS011;8335;42.646;23.380;2022-12-08T06:25:28;27.47;;;16.93;;
8279;SDS011;8335;42.646;23.380;2022-12-08T06:27:55;29.90;;;16.97;;
8279;SDS011;8335;42.646;23.380;2022-12-08T06:30:22;32.87;;;17.97;;
8279;SDS011;8335;42.646;23.380;2022-12-08T06:32:49;33.87;;;18.33;;
8279;SDS011;8335;42.646;23.380;2022-12-08T06:35:15;37.90;;;19.03;;
8279;SDS011;8335;42.646;23.380;2022-12-08T06:37:42;33.90;;;18.83;;
8279;SDS011;8335;42.646;23.380;2022-12-08T06:40:09;36.80;;;20.97;;
8279;SDS011;8335;42.646;23.380;2022-12-08T06:42:38;42.13;;;23.17;;
8279;SDS011;8335;42.646;23.380;2022-12-08T06:45:15;39.73;;;23.80;;
8279;SDS011;8335;42.646;23.380;2022-12-08T06:47:43;44.13;;;24.20;;
8279;SDS011;8335;42.646;23.380;2022-12-08T06:50:10;43.03;;;24.73;;
8279;SDS011;8335;42.646;23.380;2022-12-08T06:52:38;40.97;;;24.47;;
8279;SDS011;8335;42.646;23.380;2022-12-08T06:55:07;33.47;;;21.63;;
8279;SDS011;8335;42.646;23.380;2022-12-08T06:57:34;48.23;;;22.87;;
8279;SDS011;8335;42.646;23.380;2022-12-08T07:00:03;37.10;;;21.23;;
8279;SDS011;8335;42.646;23.380;2022-12-08T07:02:31;42.43;;;24.77;;
8279;SDS011;8335;42.646;23.380;2022-12-08T07:04:58;41.70;;;24.40;;
8279;SDS011;8335;42.646;23.380;2022-12-08T07:07:25;43.60;;;24.60;;
8279;SDS011;8335;42.646;23.380;2022-12-08T07:09:51;46.53;;;23.80;;
8279;SDS011;8335;42.646;23.380;2022-12-08T07:12:18;37.53;;;21.57;;
8279;SDS011;8335;42.646;23.380;2022-12-08T07:14:45;38.40;;;23.67;;
8279;SDS011;8335;42.646;23.380;2022-12-08T07:17:13;39.43;;;21.83;;
8279;SDS011;8335;42.646;23.380;2022-12-08T07:19:40;39.60;;;22.50;;
8279;SDS011;8335;42.646;23.380;2022-12-08T07:22:06;39.23;;;22.30;;
8279;SDS011;8335;42.646;23.380;2022-12-08T07:24:33;49.93;;;24.23;;
8279;SDS011;8335;42.646;23.380;2022-12-08T07:27:00;47.23;;;22.87;;
8279;SDS011;8335;42.646;23.380;2022-12-08T07:29:27;39.07;;;23.47;;
8279;SDS011;8335;42.646;23.380;2022-12-08T07:31:53;40.43;;;22.67;;
8279;SDS011;8335;42.646;23.380;2022-12-08T07:34:22;37.00;;;21.97;;
8279;SDS011;8335;42.646;23.380;2022-12-08T07:36:48;46.97;;;24.43;;
8279;SDS011;8335;42.646;23.380;2022-12-08T07:39:15;45.13;;;25.17;;
8279;SDS011;8335;42.646;23.380;2022-12-08T07:41:42;39.70;;;23.77;;
8279;SDS011;8335;42.646;23.380;2022-12-08T07:44:09;44.10;;;23.33;;
8279;SDS011;8335;42.646;23.380;2022-12-08T07:46:36;42.63;;;23.33;;
8279;SDS011;8335;42.646;23.380;2022-12-08T07:49:03;41.57;;;25.27;;
8279;SDS011;8335;42.646;23.380;2022-12-08T07:51:31;50.37;;;27.20;;
8279;SDS011;8335;42.646;23.380;2022-12-08T07:53:58;54.53;;;26.20;;
8279;SDS011;8335;42.646;23.380;2022-12-08T07:56:25;51.73;;;26.37;;
8279;SDS011;8335;42.646;23.380;2022-12-08T07:58:52;49.13;;;26.87;;
8279;SDS011;8335;42.646;23.380;2022-12-08T08:01:19;46.37;;;27.17;;
8279;SDS011;8335;42.646;23.380;2022-12-08T08:03:48;52.30;;;27.47;;
8279;SDS011;8335;42.646;23.380;2022-12-08T08:06:15;49.10;;;26.50;;
8279;SDS011;8335;42.646;23.380;2022-12-08T08:08:43;46.07;;;26.90;;
8279;SDS011;8335;42.646;23.380;2022-12-08T08:11:10;49.83;;;26.80;;
8279;SDS011;8335;42.646;23.380;2022-12-08T08:13:37;56.27;;;28.47;;
8279;SDS011;8335;42.646;23.380;2022-12-08T08:16:04;55.00;;;26.47;;
8279;SDS011;8335;42.646;23.380;2022-12-08T08:18:32;46.57;;;26.40;;
8279;SDS011;8335;42.646;23.380;2022-12-08T08:21:00;47.93;;;25.33;;
8279;SDS011;8335;42.646;23.380;2022-12-08T08:23:27;41.70;;;24.47;;
8279;SDS011;8335;42.646;23.380;2022-12-08T08:25:57;39.83;;;24.83;;
8279;SDS011;8335;42.646;23.380;2022-12-08T08:28:24;41.07;;;24.97;;
8279;SDS011;8335;42.646;23.380;2022-12-08T08:30:50;41.77;;;24.77;;
8279;SDS011;8335;42.646;23.380;2022-12-08T08:33:17;48.57;;;25.87;;
8279;SDS011;8335;42.646;23.380;2022-12-08T08:35:44;38.23;;;24.10;;
8279;SDS011;8335;42.646;23.380;2022-12-08T08:38:11;41.77;;;23.80;;
8279;SDS011;8335;42.646;23.380;2022-12-08T08:40:38;37.33;;;22.93;;
8279;SDS011;8335;42.646;23.380;2022-12-08T08:43:06;39.73;;;22.23;;
8279;SDS011;8335;42.646;23.380;2022-12-08T08:45:33;34.13;;;22.20;;
8279;SDS011;8335;42.646;23.380;2022-12-08T08:48:00;37.17;;;22.73;;
8279;SDS011;8335;42.646;23.380;2022-12-08T08:50:27;39.03;;;23.63;;
8279;SDS011;8335;42.646;23.380;2022-12-08T08:52:53;37.93;;;22.23;;
8279;SDS011;8335;42.646;23.380;2022-12-08T08:55:20;36.57;;;22.50;;
8279;SDS011;8335;42.646;23.380;2022-12-08T08:57:47;35.57;;;21.23;;
8279;SDS011;8335;42.646;23.380;2022-12-08T09:02:44;27.70;;;18.60;;
8279;SDS011;8335;42.646;23.380;2022-12-08T09:05:11;30.13;;;18.20;;
8279;SDS011;8335;42.646;23.380;2022-12-08T09:07:39;34.07;;;18.83;;
8279;SDS011;8335;42.646;23.380;2022-12-08T09:10:07;27.73;;;17.77;;
8279;SDS011;8335;42.646;23.380;2022-12-08T09:12:34;30.90;;;17.87;;
8279;SDS011;8335;42.646;23.380;2022-12-08T09:15:01;24.67;;;15.33;;
8279;SDS011;8335;42.646;23.380;2022-12-08T09:17:29;23.20;;;12.70;;
8279;SDS011;8335;42.646;23.380;2022-12-08T09:19:56;15.83;;;11.37;;
8279;SDS011;8335;42.646;23.380;2022-12-08T09:22:23;16.40;;;9.90;;
8279;SDS011;8335;42.646;23.380;2022-12-08T09:24:50;17.20;;;9.80;;
8279;SDS011;8335;42.646;23.380;2022-12-08T09:27:18;18.30;;;10.90;;
8279;SDS011;8335;42.646;23.380;2022-12-08T09:29:44;18.17;;;12.03;;
8279;SDS011;8335;42.646;23.380;2022-12-08T09:32:11;26.57;;;11.27;;
8279;SDS011;8335;42.646;23.380;2022-12-08T09:34:39;20.33;;;13.10;;
8279;SDS011;8335;42.646;23.380;2022-12-08T09:37:06;21.47;;;13.73;;
8279;SDS011;8335;42.646;23.380;2022-12-08T09:39:33;19.17;;;11.85;;
8279;SDS011;8335;42.646;23.380;2022-12-08T09:42:01;22.03;;;12.50;;
8279;SDS011;8335;42.646;23.380;2022-12-08T09:44:43;27.03;;;14.83;;
8279;SDS011;8335;42.646;23.380;2022-12-08T09:47:17;22.87;;;13.97;;
8279;SDS011;8335;42.646;23.380;2022-12-08T09:49:50;24.13;;;13.40;;
8279;SDS011;8335;42.646;23.380;2022-12-08T09:52:23;21.73;;;13.30;;
8279;SDS011;8335;42.646;23.380;2022-12-08T09:54:51;24.03;;;12.90;;
8279;SDS011;8335;42.646;23.380;2022-12-08T09:57:21;19.03;;;11.50;;
8279;SDS011;8335;42.646;23.380;2022-12-08T09:59:51;19.87;;;11.60;;
8279;SDS011;8335;42.646;23.380;2022-12-08T10:02:23;17.70;;;12.10;;
8279;SDS011;8335;42.646;23.380;2022-12-08T10:04:54;20.80;;;12.50;;
8279;SDS011;8335;42.646;23.380;2022-12-08T10:07:24;23.43;;;12.97;;
8279;SDS011;8335;42.646;23.380;2022-12-08T10:09:57;21.23;;;12.50;;
8279;SDS011;8335;42.646;23.380;2022-12-08T10:12:30;21.17;;;12.60;;
8279;SDS011;8335;42.646;23.380;2022-12-08T10:15:05;28.03;;;15.50;;
8279;SDS011;8335;42.646;23.380;2022-12-08T10:17:46;26.83;;;16.33;;
8279;SDS011;8335;42.646;23.380;2022-12-08T10:20:17;27.03;;;15.70;;
8279;SDS011;8335;42.646;23.380;2022-12-08T10:22:45;25.67;;;16.13;;
8279;SDS011;8335;42.646;23.380;2022-12-08T10:25:19;29.27;;;17.67;;
8279;SDS011;8335;42.646;23.380;2022-12-08T10:27:49;30.87;;;17.57;;
8279;SDS011;8335;42.646;23.380;2022-12-08T10:30:19;26.30;;;15.90;;
8279;SDS011;8335;42.646;23.380;2022-12-08T10:32:47;31.90;;;18.77;;
8279;SDS011;8335;42.646;23.380;2022-12-08T10:35:18;31.77;;;18.17;;
8279;SDS011;8335;42.646;23.380;2022-12-08T10:37:53;33.40;;;19.67;;
8279;SDS011;8335;42.646;23.380;2022-12-08T10:40:21;34.20;;;19.57;;
8279;SDS011;8335;42.646;23.380;2022-12-08T10:42:50;36.37;;;17.47;;
8279;SDS011;8335;42.646;23.380;2022-12-08T10:45:24;29.57;;;16.97;;
8279;SDS011;8335;42.646;23.380;2022-12-08T10:47:56;29.93;;;17.53;;
8279;SDS011;8335;42.646;23.380;2022-12-08T10:50:31;28.67;;;16.67;;
8279;SDS011;8335;42.646;23.380;2022-12-08T10:53:00;29.10;;;16.73;;
8279;SDS011;8335;42.646;23.380;2022-12-08T10:55:39;34.83;;;18.10;;
8279;SDS011;8335;42.646;23.380;2022-12-08T11:01:08;30.43;;;16.23;;
8279;SDS011;8335;42.646;23.380;2022-12-08T11:03:38;28.53;;;16.37;;
8279;SDS011;8335;42.646;23.380;2022-12-08T11:06:16;33.23;;;18.10;;
8279;SDS011;8335;42.646;23.380;2022-12-08T11:08:46;39.47;;;21.03;;
8279;SDS011;8335;42.646;23.380;2022-12-08T11:11:15;33.30;;;18.97;;
8279;SDS011;8335;42.646;23.380;2022-12-08T11:13:43;30.20;;;17.50;;
8279;SDS011;8335;42.646;23.380;2022-12-08T11:16:12;40.30;;;19.10;;
8279;SDS011;8335;42.646;23.380;2022-12-08T11:18:41;32.63;;;18.13;;
8279;SDS011;8335;42.646;23.380;2022-12-08T11:21:12;30.90;;;17.93;;
8279;SDS011;8335;42.646;23.380;2022-12-08T11:23:42;32.07;;;17.20;;
8279;SDS011;8335;42.646;23.380;2022-12-08T11:26:14;29.80;;;17.43;;
8279;SDS011;8335;42.646;23.380;2022-12-08T11:28:47;39.17;;;18.43;;
8279;SDS011;8335;42.646;23.380;2022-12-08T11:31:18;31.23;;;16.80;;
8279;SDS011;8335;42.646;23.380;2022-12-08T11:33:51;23.57;;;14.97;;
8279;SDS011;8335;42.646;23.380;2022-12-08T11:36:19;24.57;;;14.13;;
8279;SDS011;8335;42.646;23.380;2022-12-08T11:38:50;29.07;;;14.83;;
8279;SDS011;8335;42.646;23.380;2022-12-08T11:41:22;26.63;;;13.67;;
8279;SDS011;8335;42.646;23.380;2022-12-08T11:43:54;23.87;;;14.47;;
8279;SDS011;8335;42.646;23.380;2022-12-08T11:46:28;25.77;;;14.97;;
8279;SDS011;8335;42.646;23.380;2022-12-08T11:49:00;22.33;;;13.40;;
8279;SDS011;8335;42.646;23.380;2022-12-08T11:51:29;22.43;;;12.70;;
8279;SDS011;8335;42.646;23.380;2022-12-08T11:54:09;18.10;;;10.47;;
8279;SDS011;8335;42.646;23.380;2022-12-08T11:56:43;10.83;;;7.40;;
8279;SDS011;8335;42.646;23.380;2022-12-08T11:59:15;11.13;;;7.50;;
8279;SDS011;8335;42.646;23.380;2022-12-08T12:01:48;13.67;;;7.60;;
8279;SDS011;8335;42.646;23.380;2022-12-08T12:04:17;14.43;;;7.77;;
8279;SDS011;8335;42.646;23.380;2022-12-08T12:06:53;13.17;;;7.80;;
8279;SDS011;8335;42.646;23.380;2022-12-08T12:09:46;11.40;;;8.27;;
8279;SDS011;8335;42.646;23.380;2022-12-08T12:12:30;15.70;;;7.57;;
8279;SDS011;8335;42.646;23.380;2022-12-08T12:18:11;13.57;;;8.00;;
8279;SDS011;8335;42.646;23.380;2022-12-08T12:20:46;14.30;;;7.97;;
8279;SDS011;8335;42.646;23.380;2022-12-08T12:23:18;23.53;;;9.80;;
8279;SDS011;8335;42.646;23.380;2022-12-08T12:25:54;20.37;;;9.03;;
8279;SDS011;8335;42.646;23.380;2022-12-08T12:28:25;18.97;;;9.23;;
8279;SDS011;8335;42.646;23.380;2022-12-08T12:30:56;18.93;;;8.73;;
8279;SDS011;8335;42.646;23.380;2022-12-08T12:33:28;12.63;;;8.67;;
8279;SDS011;8335;42.646;23.380;2022-12-08T12:35:56;16.07;;;8.63;;
8279;SDS011;8335;42.646;23.380;2022-12-08T12:38:29;14.40;;;9.37;;
8279;SDS011;8335;42.646;23.380;2022-12-08T12:41:18;15.87;;;8.73;;
8279;SDS011;8335;42.646;23.380;2022-12-08T12:46:51;17.63;;;10.10;;
8279;SDS011;8335;42.646;23.380;2022-12-08T12:58:32;19.40;;;9.93;;
8279;SDS011;8335;42.646;23.380;2022-12-08T13:04:16;22.50;;;11.30;;
8279;SDS011;8335;42.646;23.380;2022-12-08T13:06:44;19.43;;;9.33;;
8279;SDS011;8335;42.646;23.380;2022-12-08T13:09:21;15.83;;;9.37;;
8279;SDS011;8335;42.646;23.380;2022-12-08T13:11:54;15.10;;;9.13;;
8279;SDS011;8335;42.646;23.380;2022-12-08T13:14:34;25.33;;;10.77;;
8279;SDS011;8335;42.646;23.380;2022-12-08T13:17:06;21.13;;;10.30;;
8279;SDS011;8335;42.646;23.380;2022-12-08T13:19:37;17.53;;;9.60;;
8279;SDS011;8335;42.646;23.380;2022-12-08T13:28:19;20.50;;;12.13;;
8279;SDS011;8335;42.646;23.380;2022-12-08T13:30:50;24.53;;;11.37;;
8279;SDS011;8335;42.646;23.380;2022-12-08T13:33:18;20.37;;;11.60;;
8279;SDS011;8335;42.646;23.380;2022-12-08T13:36:10;20.80;;;10.30;;
8279;SDS011;8335;42.646;23.380;2022-12-08T13:38:43;19.27;;;11.03;;
8279;SDS011;8335;42.646;23.380;2022-12-08T13:41:15;19.77;;;11.07;;
8279;SDS011;8335;42.646;23.380;2022-12-08T13:43:44;18.77;;;11.17;;
8279;SDS011;8335;42.646;23.380;2022-12-08T13:46:20;29.80;;;12.47;;
8279;SDS011;8335;42.646;23.380;2022-12-08T13:48:56;21.83;;;11.77;;
8279;SDS011;8335;42.646;23.380;2022-12-08T13:51:26;21.57;;;11.97;;
8279;SDS011;8335;42.646;23.380;2022-12-08T13:53:58;20.53;;;11.20;;
8279;SDS011;8335;42.646;23.380;2022-12-08T13:56:30;19.20;;;11.23;;
8279;SDS011;8335;42.646;23.380;2022-12-08T13:59:08;19.17;;;10.93;;
8279;SDS011;8335;42.646;23.380;2022-12-08T14:01:50;24.40;;;11.57;;
8279;SDS011;8335;42.646;23.380;2022-12-08T14:04:18;17.47;;;11.23;;
8279;SDS011;8335;42.646;23.380;2022-12-08T14:06:47;21.27;;;12.10;;
8279;SDS011;8335;42.646;23.380;2022-12-08T14:09:17;23.60;;;12.47;;
8279;SDS011;8335;42.646;23.380;2022-12-08T14:11:46;23.83;;;12.00;;
8279;SDS011;8335;42.646;23.380;2022-12-08T14:14:18;23.60;;;12.23;;
8279;SDS011;8335;42.646;23.380;2022-12-08T14:16:48;24.47;;;13.20;;
8279;SDS011;8335;42.646;23.380;2022-12-08T14:19:18;22.47;;;13.27;;
8279;SDS011;8335;42.646;23.380;2022-12-08T14:21:49;19.93;;;12.63;;
8279;SDS011;8335;42.646;23.380;2022-12-08T14:24:20;24.70;;;13.10;;
8279;SDS011;8335;42.646;23.380;2022-12-08T14:26:47;23.83;;;12.00;;
8279;SDS011;8335;42.646;23.380;2022-12-08T14:29:32;25.97;;;12.63;;
8279;SDS011;8335;42.646;23.380;2022-12-08T14:32:14;21.90;;;12.03;;
8279;SDS011;8335;42.646;23.380;2022-12-08T14:34:49;33.23;;;13.00;;
8279;SDS011;8335;42.646;23.380;2022-12-08T14:37:19;21.30;;;12.33;;
8279;SDS011;8335;42.646;23.380;2022-12-08T14:39:47;30.87;;;12.97;;
8279;SDS011;8335;42.646;23.380;2022-12-08T14:42:17;25.93;;;12.83;;
8279;SDS011;8335;42.646;23.380;2022-12-08T14:44:49;26.57;;;12.83;;
8279;SDS011;8335;42.646;23.380;2022-12-08T14:47:25;28.17;;;13.33;;
8279;SDS011;8335;42.646;23.380;2022-12-08T14:49:54;26.33;;;13.93;;
8279;SDS011;8335;42.646;23.380;2022-12-08T14:52:21;26.57;;;14.10;;
8279;SDS011;8335;42.646;23.380;2022-12-08T14:54:48;32.77;;;14.83;;
8279;SDS011;8335;42.646;23.380;2022-12-08T14:57:16;33.20;;;14.70;;
8279;SDS011;8335;42.646;23.380;2022-12-08T14:59:43;33.77;;;19.33;;
8279;SDS011;8335;42.646;23.380;2022-12-08T15:02:20;44.53;;;20.63;;
8279;SDS011;8335;42.646;23.380;2022-12-08T15:04:56;25.87;;;14.87;;
8279;SDS011;8335;42.646;23.380;2022-12-08T15:07:26;27.00;;;14.17;;
8279;SDS011;8335;42.646;23.380;2022-12-08T15:10:06;25.57;;;14.27;;
8279;SDS011;8335;42.646;23.380;2022-12-08T15:12:55;33.43;;;15.43;;
8279;SDS011;8335;42.646;23.380;2022-12-08T15:15:23;33.30;;;15.93;;
8279;SDS011;8335;42.646;23.380;2022-12-08T15:17:56;32.13;;;14.63;;
8279;SDS011;8335;42.646;23.380;2022-12-08T15:20:28;29.50;;;14.30;;
8279;SDS011;8335;42.646;23.380;2022-12-08T15:22:59;29.77;;;14.83;;
8279;SDS011;8335;42.646;23.380;2022-12-08T15:25:27;36.27;;;15.60;;
8279;SDS011;8335;42.646;23.380;2022-12-08T15:27:54;27.37;;;15.20;;